createdAt,value
2018-08-24T06:01:35.710Z,982.85
2018-08-24T06:02:28.199Z,982.86
2018-08-24T06:03:26.630Z,982.89
2018-08-24T06:04:29.043Z,982.87
2018-08-24T06:05:30.030Z,982.93
2018-08-24T06:07:32.257Z,982.90
2018-08-24T06:08:30.033Z,982.94
2018-08-24T06:09:28.364Z,982.95
2018-08-24T06:10:35.766Z,982.94
2018-08-24T06:11:28.610Z,982.94
2018-08-24T06:12:30.031Z,982.95
2018-08-24T06:13:28.149Z,982.95
2018-08-24T06:14:29.623Z,982.99
2018-08-24T06:15:27.729Z,982.98
2018-08-24T06:16:26.276Z,983.03
2018-08-24T06:17:26.573Z,983.00
2018-08-24T06:18:26.537Z,983.01
2018-08-24T06:19:26.804Z,983.02
2018-08-24T06:20:27.002Z,982.97
2018-08-24T06:21:27.116Z,983.00
2018-08-24T06:22:27.282Z,983.02
2018-08-24T06:23:28.358Z,983.03
2018-08-24T06:24:27.557Z,983.02
2018-08-24T06:25:27.816Z,983.00
2018-08-24T06:26:28.332Z,983.05
2018-08-24T06:27:28.214Z,983.05
2018-08-24T06:30:13.876Z,983.06
2018-08-24T06:31:14.345Z,983.04
2018-08-24T06:33:17.564Z,983.08
2018-08-24T06:34:16.255Z,983.09
2018-08-24T06:35:27.619Z,983.11
2018-08-24T06:37:28.491Z,983.12
2018-08-24T06:40:00.106Z,983.20
2018-08-24T06:41:01.886Z,983.24
2018-08-24T06:42:07.499Z,983.21
2018-08-24T06:43:00.100Z,983.22
2018-08-24T06:45:03.281Z,983.23
2018-08-24T06:46:04.848Z,983.23
2018-08-24T07:00:39.052Z,983.39
2018-08-24T07:01:41.958Z,983.43
2018-08-24T07:02:40.156Z,983.42
2018-08-24T07:03:39.645Z,983.44
2018-08-24T07:04:38.441Z,983.46
2018-08-24T07:05:40.795Z,983.53
2018-08-24T07:07:43.160Z,983.52
2018-08-24T07:08:39.822Z,983.51
2018-08-24T07:09:39.825Z,983.50
2018-08-24T07:10:41.375Z,983.53
2018-08-24T07:11:39.785Z,983.48
2018-08-24T07:12:37.187Z,983.47
2018-08-24T07:14:37.674Z,983.43
2018-08-24T07:15:37.868Z,983.46
2018-08-24T07:16:37.907Z,983.46
2018-08-24T07:17:37.966Z,983.45
2018-08-24T07:18:38.230Z,983.45
2018-08-24T07:19:38.615Z,983.39
2018-08-24T07:20:38.465Z,983.52
2018-08-24T07:21:38.959Z,983.52
2018-08-24T07:22:39.040Z,983.51
2018-08-24T07:23:38.970Z,983.50
2018-08-24T07:24:39.168Z,983.52
2018-08-24T07:25:39.972Z,983.55
2018-08-24T07:26:39.513Z,983.59
2018-08-24T07:27:39.791Z,983.61
2018-08-24T07:28:39.903Z,983.68
2018-08-24T07:29:40.073Z,983.68
2018-08-24T07:30:40.171Z,983.71
2018-08-24T07:31:40.312Z,983.83
2018-08-24T07:32:40.521Z,983.77
2018-08-24T07:33:40.714Z,983.77
2018-08-24T07:34:40.983Z,983.75
2018-08-24T07:35:41.044Z,983.82
2018-08-24T07:36:41.176Z,983.85
2018-08-24T07:37:41.295Z,983.81
2018-08-24T07:38:41.719Z,983.81
2018-08-24T07:39:41.751Z,983.84
2018-08-24T07:40:41.983Z,983.87
2018-08-24T07:41:42.251Z,983.82
2018-08-24T07:42:42.384Z,983.87
2018-08-24T07:43:42.952Z,983.86
2018-08-24T07:44:43.135Z,983.82
2018-08-24T07:45:43.313Z,983.88
2018-08-24T07:46:43.123Z,983.92
2018-08-24T07:47:43.346Z,983.86
2018-08-24T07:48:43.802Z,983.88
2018-08-24T07:49:43.741Z,983.90
2018-08-24T07:50:43.975Z,983.97
2018-08-24T07:51:44.769Z,983.94
2018-08-24T07:52:44.284Z,983.98
2018-08-24T07:53:44.678Z,983.96
2018-08-24T07:54:45.089Z,983.99
2018-08-24T07:55:45.077Z,983.95
2018-08-24T07:56:45.367Z,983.90
2018-08-24T07:57:45.353Z,983.91
2018-08-24T07:58:45.676Z,983.83
2018-08-24T07:59:45.944Z,983.87
2018-08-24T08:00:45.963Z,983.90
2018-08-24T08:01:46.151Z,983.90
2018-08-24T08:02:46.374Z,983.99
2018-08-24T08:03:46.706Z,984.00
2018-08-24T08:04:46.757Z,983.98
2018-08-24T08:05:46.829Z,983.93
2018-08-24T08:06:47.116Z,983.90
2018-08-24T08:07:47.012Z,983.93
2018-08-24T08:08:47.270Z,983.88
2018-08-24T08:09:47.469Z,983.91
2018-08-24T08:10:47.471Z,983.93
2018-08-24T08:11:47.680Z,983.91
2018-08-24T08:12:47.827Z,983.91
2018-08-24T08:13:47.995Z,983.98
2018-08-24T08:14:48.343Z,983.97
2018-08-24T08:15:48.530Z,984.03
2018-08-24T08:16:48.631Z,984.07
2018-08-24T08:17:48.870Z,984.06
2018-08-24T08:18:49.011Z,984.09
2018-08-24T08:19:49.032Z,984.04
2018-08-24T08:20:49.289Z,984.08
2018-08-24T08:21:49.442Z,984.07
2018-08-24T08:22:49.679Z,984.09
2018-08-24T08:23:49.872Z,984.11
2018-08-24T08:24:50.094Z,984.10
2018-08-24T08:25:50.066Z,984.07
2018-08-24T08:26:50.437Z,984.08
2018-08-24T08:27:50.640Z,984.15
2018-08-24T08:28:50.874Z,984.13
2018-08-24T08:29:51.084Z,984.11
2018-08-24T08:30:51.347Z,984.11
2018-08-24T08:31:51.402Z,984.19
2018-08-24T08:32:51.938Z,984.12
2018-08-24T08:33:51.790Z,984.18
2018-08-24T08:34:51.821Z,984.20
2018-08-24T08:35:52.110Z,984.18
2018-08-24T08:36:52.474Z,984.20
2018-08-24T08:37:52.778Z,984.25
2018-08-24T08:38:52.978Z,984.27
2018-08-24T08:39:52.808Z,984.29
2018-08-24T08:40:53.119Z,984.25
2018-08-24T08:41:53.245Z,984.29
2018-08-24T08:42:53.413Z,984.28
2018-08-24T08:43:53.773Z,984.31
2018-08-24T08:44:53.705Z,984.26
2018-08-24T08:45:53.820Z,984.28
2018-08-24T08:46:54.160Z,984.27
2018-08-24T08:47:54.032Z,984.22
2018-08-24T08:48:54.509Z,984.20
2018-08-24T08:49:54.918Z,984.26
2018-08-24T08:50:54.891Z,984.17
2018-08-24T08:51:55.186Z,984.17
2018-08-24T08:52:55.299Z,984.21
2018-08-24T08:53:55.252Z,984.19
2018-08-24T08:54:55.581Z,984.22
2018-08-24T08:55:55.566Z,984.25
2018-08-24T08:56:56.077Z,984.29
2018-08-24T08:57:56.802Z,984.36
2018-08-24T08:58:56.121Z,984.43
2018-08-24T08:59:56.091Z,984.52
2018-08-24T09:00:56.263Z,984.55
2018-08-24T09:01:56.664Z,984.54
2018-08-24T09:02:57.005Z,984.56
2018-08-24T09:03:57.084Z,984.56
2018-08-24T09:04:57.267Z,984.56
2018-08-24T09:05:57.505Z,984.57
2018-08-24T09:06:57.994Z,984.54
2018-08-24T09:07:57.783Z,984.52
2018-08-24T09:08:58.092Z,984.52
2018-08-24T09:09:58.222Z,984.53
2018-08-24T09:10:58.495Z,984.49
2018-08-24T09:11:58.544Z,984.57
2018-08-24T09:12:58.757Z,984.57
2018-08-24T09:13:59.063Z,984.56
2018-08-24T09:14:59.277Z,984.60
2018-08-24T09:15:59.255Z,984.62
2018-08-24T09:16:59.856Z,984.52
2018-08-24T09:17:59.700Z,984.59
2018-08-24T09:19:00.693Z,984.63
2018-08-24T09:20:00.327Z,984.65
2018-08-24T09:21:00.672Z,984.73
2018-08-24T09:22:00.665Z,984.75
2018-08-24T09:23:05.006Z,984.73
2018-08-24T09:24:00.783Z,984.77
2018-08-24T09:25:02.083Z,984.80
2018-08-24T09:26:03.029Z,984.81
2018-08-24T09:27:02.393Z,984.78
2018-08-24T09:29:01.918Z,984.82
2018-08-24T09:30:02.061Z,984.75
2018-08-24T09:31:02.693Z,984.79
2018-08-24T09:32:02.696Z,984.73
2018-08-24T09:33:03.395Z,984.76
2018-08-24T09:34:03.325Z,984.73
2018-08-24T09:35:03.789Z,984.74
2018-08-24T09:36:02.982Z,984.70
2018-08-24T09:37:03.410Z,984.73
2018-08-24T09:38:03.534Z,984.72
2018-08-24T09:39:32.082Z,984.73
2018-08-24T09:40:04.139Z,984.76
2018-08-24T09:42:49.422Z,984.80
2018-08-24T09:43:49.557Z,984.84
2018-08-24T09:44:50.458Z,984.88
2018-08-24T09:45:51.078Z,984.91
2018-08-24T09:46:51.121Z,984.90
2018-08-24T09:47:52.565Z,984.93
2018-08-24T09:48:51.191Z,984.82
2018-08-24T09:49:51.759Z,984.74
2018-08-24T09:51:51.011Z,984.67
2018-08-24T09:52:50.646Z,984.68
2018-08-24T09:53:52.378Z,984.66
2018-08-24T09:55:50.869Z,984.72
2018-08-24T09:56:49.207Z,984.72
2018-08-24T09:57:49.424Z,984.75
2018-08-24T09:58:49.593Z,984.74
2018-08-24T09:59:49.864Z,984.79
2018-08-24T10:00:49.913Z,984.91
2018-08-24T10:01:49.967Z,984.92
2018-08-24T10:02:50.291Z,984.96
2018-08-24T10:03:50.136Z,985.01
2018-08-24T10:05:50.565Z,985.02
2018-08-24T10:06:51.117Z,984.96
2018-08-24T10:07:51.058Z,984.98
2018-08-24T10:08:51.170Z,985.05
2018-08-24T10:09:51.543Z,985.03
2018-08-24T10:10:51.545Z,985.07
2018-08-24T10:11:51.992Z,985.02
2018-08-24T10:12:52.024Z,985.06
2018-08-24T10:13:52.596Z,985.01
2018-08-24T10:14:52.488Z,985.05
2018-08-24T10:15:52.489Z,985.08
2018-08-24T10:16:52.672Z,985.16
2018-08-24T10:17:53.502Z,985.10
2018-08-24T10:18:53.651Z,985.04
2018-08-24T10:19:53.539Z,984.97
2018-08-24T10:20:54.174Z,984.96
2018-08-24T10:21:54.142Z,984.94
2018-08-24T10:22:54.247Z,984.88
2018-08-24T10:23:54.711Z,984.87
2018-08-24T10:24:54.374Z,984.82
2018-08-24T10:25:54.727Z,984.82
2018-08-24T10:26:54.822Z,984.84
2018-08-24T10:27:55.394Z,984.82
2018-08-24T10:28:56.447Z,984.87
2018-08-24T10:29:55.419Z,984.89
2018-08-24T10:30:55.510Z,984.93
2018-08-24T10:31:55.952Z,985.00
2018-08-24T10:32:55.517Z,984.95
2018-08-24T10:33:55.940Z,985.04
2018-08-24T10:34:56.176Z,985.04
2018-08-24T10:35:55.953Z,985.08
2018-08-24T10:36:56.030Z,985.13
2018-08-24T10:37:56.434Z,985.09
2018-08-24T10:38:57.124Z,985.00
2018-08-24T10:39:56.723Z,985.05
2018-08-24T10:40:57.191Z,985.06
2018-08-24T10:41:57.201Z,985.07
2018-08-24T10:42:57.382Z,985.09
2018-08-24T10:43:57.911Z,985.07
2018-08-24T10:44:58.657Z,985.11
2018-08-24T10:45:59.660Z,985.09
2018-08-24T10:47:01.942Z,985.16
2018-08-24T10:47:58.421Z,985.18
2018-08-24T10:50:51.914Z,985.09
2018-08-24T10:52:14.606Z,985.06
2018-08-24T10:52:57.486Z,984.98
2018-08-24T10:53:50.821Z,985.11
2018-08-24T10:57:01.139Z,985.07
2018-08-24T10:59:21.933Z,985.23
2018-08-24T10:59:53.733Z,985.23
2018-08-24T11:01:53.919Z,985.18
2018-08-24T11:02:52.197Z,985.17
2018-08-24T11:03:54.945Z,985.23
2018-08-24T11:04:51.021Z,985.21
2018-08-24T11:06:50.306Z,985.16
2018-08-24T11:07:50.826Z,985.08
2018-08-24T11:08:52.151Z,985.06
2018-08-24T11:11:41.679Z,985.07
2018-08-24T11:13:41.159Z,985.01
2018-08-24T11:14:44.131Z,984.99
2018-08-24T11:16:11.702Z,985.03
2018-08-24T11:16:39.845Z,985.02
2018-08-24T11:17:56.597Z,985.00
2018-08-24T11:18:43.795Z,984.98
2018-08-24T11:20:07.529Z,985.03
2018-08-24T11:20:45.439Z,985.03
2018-08-24T11:21:53.065Z,984.96
2018-08-24T11:22:40.171Z,984.97
2018-08-24T11:23:40.322Z,984.99
2018-08-24T11:25:42.724Z,985.01
2018-08-24T11:27:41.266Z,984.99
2018-08-24T11:29:41.133Z,985.03
2018-08-24T11:30:39.620Z,985.13
2018-08-24T11:31:39.869Z,985.06
2018-08-24T11:32:39.838Z,984.98
2018-08-24T11:38:06.887Z,984.89
2018-08-24T11:41:13.532Z,985.01
2018-08-24T11:42:10.754Z,985.23
2018-08-24T11:43:11.618Z,985.27
2018-08-24T11:44:10.004Z,985.08
2018-08-24T11:45:09.621Z,985.00
2018-08-24T11:46:08.163Z,984.94
2018-08-24T11:47:07.709Z,984.86
2018-08-24T11:48:08.057Z,984.99
2018-08-24T11:49:08.809Z,985.53
2018-08-24T11:50:08.267Z,985.65
2018-08-24T11:51:09.603Z,985.65
2018-08-24T11:52:10.558Z,985.70
2018-08-24T11:53:10.075Z,985.63
2018-08-24T11:54:10.658Z,985.76
2018-08-24T11:55:09.180Z,985.53
2018-08-24T11:56:09.886Z,985.74
2018-08-24T11:57:11.371Z,985.80
2018-08-24T11:58:10.184Z,985.82
2018-08-24T11:59:10.359Z,985.81
2018-08-24T12:00:10.703Z,985.67
2018-08-24T12:01:10.409Z,985.72
2018-08-24T12:02:11.779Z,985.61
2018-08-24T12:03:10.741Z,984.86
2018-08-24T12:04:10.920Z,985.09
2018-08-24T12:05:11.107Z,985.35
2018-08-24T12:06:11.494Z,985.18
2018-08-24T12:07:12.570Z,985.31
2018-08-24T12:08:13.753Z,985.31
2018-08-24T12:09:12.221Z,985.41
2018-08-24T12:10:12.740Z,985.34
2018-08-24T12:11:12.930Z,985.56
2018-08-24T12:12:14.856Z,985.41
2018-08-24T12:13:13.344Z,985.23
2018-08-24T12:14:20.051Z,985.41
2018-08-24T12:15:13.741Z,985.38
2018-08-24T12:16:13.625Z,985.20
2018-08-24T12:17:14.684Z,985.36
2018-08-24T12:18:15.585Z,984.93
2018-08-24T12:19:13.705Z,984.84
2018-08-24T12:20:13.692Z,985.49
2018-08-24T12:21:13.860Z,984.81
2018-08-24T12:22:14.070Z,984.62
2018-08-24T12:23:14.476Z,984.66
2018-08-24T12:24:14.666Z,984.89
2018-08-24T12:25:14.930Z,984.93
2018-08-24T12:26:14.971Z,984.84
2018-08-24T12:27:15.215Z,984.95
2018-08-24T12:28:15.206Z,984.97
2018-08-24T12:29:15.419Z,985.07
2018-08-24T12:30:15.581Z,984.79
2018-08-24T12:31:15.819Z,985.10
2018-08-24T12:32:16.001Z,985.01
2018-08-24T12:33:16.724Z,984.99
2018-08-24T12:34:16.493Z,984.92
2018-08-24T12:35:16.684Z,985.05
2018-08-24T12:36:16.916Z,984.87
2018-08-24T12:37:17.011Z,984.72
2018-08-24T12:38:17.170Z,984.57
2018-08-24T12:39:17.542Z,984.76
2018-08-24T12:40:17.574Z,984.65
2018-08-24T12:41:18.123Z,984.68
2018-08-24T12:42:19.242Z,984.66
2018-08-24T12:43:18.499Z,984.52
2018-08-24T12:44:18.625Z,984.57
2018-08-24T12:45:18.982Z,984.34
2018-08-24T12:46:18.665Z,984.45
2018-08-24T12:47:18.835Z,984.45
2018-08-24T12:48:19.030Z,984.39
2018-08-24T12:49:19.258Z,984.28
2018-08-24T12:50:19.368Z,984.24
2018-08-24T12:51:19.599Z,984.61
2018-08-24T12:52:19.719Z,984.60
2018-08-24T12:53:19.959Z,984.32
2018-08-24T12:54:20.141Z,984.62
2018-08-24T12:55:20.478Z,984.56
2018-08-24T12:56:20.543Z,984.58
2018-08-24T12:57:20.614Z,984.44
2018-08-24T12:58:20.920Z,984.22
2018-08-24T12:59:23.444Z,984.46
2018-08-24T13:00:21.318Z,984.44
2018-08-24T13:01:21.471Z,984.47
2018-08-24T13:02:21.696Z,984.36
2018-08-24T13:03:22.027Z,984.42
2018-08-24T13:04:22.762Z,984.39
2018-08-24T13:05:22.276Z,984.42
2018-08-24T13:06:22.355Z,984.33
2018-08-24T13:07:22.665Z,984.38
2018-08-24T13:08:22.873Z,984.32
2018-08-24T13:09:23.051Z,984.23
2018-08-24T13:10:23.157Z,984.17
2018-08-24T13:11:23.406Z,984.18
2018-08-24T13:12:23.502Z,984.20
2018-08-24T13:13:23.728Z,984.15
2018-08-24T13:14:24.105Z,984.18
2018-08-24T13:15:24.322Z,984.18
2018-08-24T13:16:24.392Z,984.13
2018-08-24T13:17:24.598Z,983.95
2018-08-24T13:18:24.905Z,984.21
2018-08-24T13:19:24.872Z,984.21
2018-08-24T13:20:25.172Z,984.21
2018-08-24T13:21:25.453Z,984.10
2018-08-24T13:22:25.692Z,984.31
2018-08-24T13:23:25.817Z,984.26
2018-08-24T13:24:25.897Z,984.01
2018-08-24T13:25:26.101Z,984.21
2018-08-24T13:26:26.277Z,984.25
2018-08-24T13:27:26.571Z,984.20
2018-08-24T13:28:26.760Z,983.96
2018-08-24T13:29:26.774Z,984.02
2018-08-24T13:30:27.077Z,984.06
2018-08-24T13:31:27.191Z,983.97
2018-08-24T13:32:27.503Z,983.96
2018-08-24T13:33:27.595Z,984.15
2018-08-24T13:34:27.784Z,984.09
2018-08-24T13:35:28.046Z,983.88
2018-08-24T13:36:28.074Z,984.00
2018-08-24T13:37:28.434Z,983.94
2018-08-24T13:38:28.492Z,983.87
2018-08-24T13:39:28.747Z,983.99
2018-08-24T13:40:28.886Z,983.97
2018-08-24T13:41:29.214Z,983.84
2018-08-24T13:42:29.412Z,983.84
2018-08-24T13:43:29.578Z,983.90
2018-08-24T13:44:29.705Z,983.82
2018-08-24T13:45:29.867Z,983.91
2018-08-24T13:46:30.007Z,983.97
2018-08-24T13:47:30.348Z,983.91
2018-08-24T13:48:30.446Z,983.98
2018-08-24T13:49:30.564Z,984.02
2018-08-24T13:50:30.772Z,984.16
2018-08-24T13:51:30.825Z,984.17
2018-08-24T13:52:31.187Z,984.18
2018-08-24T13:53:31.257Z,984.33
2018-08-24T13:54:31.521Z,984.37
2018-08-24T13:55:31.683Z,984.33
2018-08-24T13:56:31.921Z,984.39
2018-08-24T13:57:32.189Z,984.35
2018-08-24T13:58:32.218Z,984.35
2018-08-24T13:59:32.485Z,984.29
2018-08-24T14:00:32.498Z,984.25
2018-08-24T14:01:32.725Z,984.28
2018-08-24T14:02:32.891Z,984.24
2018-08-24T14:03:32.973Z,984.27
2018-08-24T14:04:33.252Z,984.27
2018-08-24T14:05:33.473Z,984.29
2018-08-24T14:06:33.533Z,984.28
2018-08-24T14:07:33.749Z,984.25
2018-08-24T14:08:34.464Z,984.23
2018-08-24T14:09:34.110Z,984.24
2018-08-24T14:10:34.328Z,984.25
2018-08-24T14:11:34.598Z,984.28
2018-08-24T14:12:34.689Z,984.20
2018-08-24T14:13:35.058Z,984.15
2018-08-24T14:14:35.046Z,984.13
2018-08-24T14:15:35.131Z,984.13
2018-08-24T14:16:35.357Z,983.98
2018-08-24T14:17:35.607Z,984.00
2018-08-24T14:18:35.854Z,984.11
2018-08-24T14:19:36.010Z,984.12
2018-08-24T14:20:36.035Z,984.17
2018-08-24T14:21:36.430Z,984.13
2018-08-24T14:22:36.432Z,984.14
2018-08-24T14:23:36.804Z,984.07
2018-08-24T14:24:36.828Z,984.09
2018-08-24T14:25:37.152Z,984.10
2018-08-24T14:26:37.339Z,984.13
2018-08-24T14:27:37.512Z,984.16
2018-08-24T14:28:37.655Z,984.07
2018-08-24T14:29:37.814Z,984.12
2018-08-24T14:30:37.990Z,984.23
2018-08-24T14:31:38.233Z,984.15
2018-08-24T14:32:38.268Z,984.14
2018-08-24T14:33:38.590Z,984.15
2018-08-24T14:34:38.747Z,984.18
2018-08-24T14:35:39.004Z,984.16
2018-08-24T14:36:39.225Z,984.02
2018-08-24T14:37:39.302Z,983.84
2018-08-24T14:38:39.435Z,983.84
2018-08-24T14:39:39.589Z,983.81
2018-08-24T14:40:39.896Z,983.95
2018-08-24T14:41:40.049Z,983.93
2018-08-24T14:42:40.570Z,983.97
2018-08-24T14:43:40.375Z,983.94
2018-08-24T14:44:40.617Z,983.97
2018-08-24T14:45:40.761Z,983.95
2018-08-24T14:46:40.904Z,983.98
2018-08-24T14:47:41.151Z,983.89
2018-08-24T14:48:41.308Z,983.79
2018-08-24T14:49:41.530Z,983.85
2018-08-24T14:50:41.670Z,983.90
2018-08-24T14:51:41.820Z,983.98
2018-08-24T14:52:42.028Z,983.90
2018-08-24T14:53:42.152Z,983.85
2018-08-24T14:54:42.339Z,983.88
2018-08-24T14:55:42.512Z,983.82
2018-08-24T14:56:42.631Z,983.79
2018-08-24T14:57:42.892Z,983.83
2018-08-24T14:58:43.057Z,983.89
2018-08-24T14:59:43.266Z,983.85
2018-08-24T15:00:43.556Z,983.73
2018-08-24T15:01:43.595Z,983.69
2018-08-24T15:02:43.829Z,983.73
2018-08-24T15:03:43.979Z,983.67
2018-08-24T15:04:44.210Z,983.71
2018-08-24T15:05:44.375Z,983.75
2018-08-24T15:06:44.628Z,983.72
2018-08-24T15:07:44.725Z,983.72
2018-08-24T15:08:45.123Z,983.73
2018-08-24T15:09:45.121Z,983.73
2018-08-24T15:10:45.482Z,983.76
2018-08-24T15:11:45.368Z,983.73
2018-08-24T15:12:45.604Z,983.71
2018-08-24T15:13:45.911Z,983.69
2018-08-24T15:14:45.999Z,983.69
2018-08-24T15:15:46.140Z,983.70
2018-08-24T15:16:46.408Z,983.68
2018-08-24T15:17:46.581Z,983.61
2018-08-24T15:18:46.919Z,983.69
2018-08-24T15:19:46.891Z,983.66
2018-08-24T15:20:47.197Z,983.74
2018-08-24T15:21:47.275Z,983.73
2018-08-24T15:22:47.454Z,983.78
2018-08-24T15:23:47.695Z,983.77
2018-08-24T15:24:47.820Z,983.78
2018-08-24T15:26:48.196Z,983.84
2018-08-24T15:27:48.377Z,983.78
2018-08-24T15:28:48.616Z,983.75
2018-08-24T15:29:48.725Z,983.81
2018-08-24T15:30:48.961Z,983.74
2018-08-24T15:31:48.951Z,983.77
2018-08-24T15:32:49.513Z,983.75
2018-08-24T15:33:49.300Z,983.85
2018-08-24T15:34:49.686Z,983.77
2018-08-24T15:35:49.844Z,983.80
2018-08-24T15:36:49.948Z,983.71
2018-08-24T15:37:50.261Z,983.75
2018-08-24T15:38:50.425Z,983.78
2018-08-24T15:39:50.479Z,983.74
2018-08-24T15:40:50.603Z,983.79
2018-08-24T15:41:50.846Z,983.78
2018-08-24T15:42:50.968Z,983.79
2018-08-24T15:43:51.287Z,983.76
2018-08-24T15:44:51.385Z,983.76
2018-08-24T15:45:52.028Z,983.80
2018-08-24T15:46:51.704Z,983.75
2018-08-24T15:47:51.874Z,983.78
2018-08-24T15:48:51.988Z,983.76
2018-08-24T15:49:52.182Z,983.78
2018-08-24T15:50:52.393Z,983.79
2018-08-24T15:51:52.567Z,983.83
2018-08-24T15:52:52.769Z,983.87
2018-08-24T15:53:52.844Z,983.84
2018-08-24T15:54:53.032Z,983.80
2018-08-24T15:55:53.277Z,983.75
2018-08-24T15:56:53.510Z,983.77
2018-08-24T15:57:53.646Z,983.74
2018-08-24T15:58:53.761Z,983.79
2018-08-24T15:59:54.016Z,983.76
2018-08-24T16:00:54.093Z,983.75
2018-08-24T16:01:54.380Z,983.71
2018-08-24T16:02:54.571Z,983.72
2018-08-24T16:03:54.720Z,983.72
2018-08-24T16:04:54.973Z,983.75
2018-08-24T16:05:55.175Z,983.77
2018-08-24T16:06:55.318Z,983.72
2018-08-24T16:07:55.522Z,983.75
2018-08-24T16:08:55.595Z,983.74
2018-08-24T16:09:55.760Z,983.80
2018-08-24T16:10:56.020Z,983.83
2018-08-24T16:11:56.129Z,983.76
2018-08-24T16:12:56.293Z,983.72
2018-08-24T16:13:56.545Z,983.74
2018-08-24T16:14:56.681Z,983.74
2018-08-24T16:15:56.754Z,983.71
2018-08-24T16:16:57.081Z,983.81
2018-08-24T16:17:57.299Z,983.74
2018-08-24T16:18:57.347Z,983.72
2018-08-24T16:19:57.657Z,983.73
2018-08-24T16:20:57.727Z,983.75
2018-08-24T16:21:58.010Z,983.70
2018-08-24T16:22:58.065Z,983.73
2018-08-24T16:23:58.305Z,983.73
2018-08-24T16:24:58.457Z,983.78
2018-08-24T16:25:58.647Z,983.73
2018-08-24T16:26:58.760Z,983.69
2018-08-24T16:27:58.849Z,983.68
2018-08-24T16:28:59.163Z,983.65
2018-08-24T16:29:59.198Z,983.70
2018-08-24T16:30:59.430Z,983.75
2018-08-24T16:31:59.648Z,983.74
2018-08-24T16:32:59.780Z,983.72
2018-08-24T16:33:59.973Z,983.77
2018-08-24T16:35:00.241Z,983.75
2018-08-24T16:36:00.444Z,983.80
2018-08-24T16:37:00.585Z,983.78
2018-08-24T16:38:00.614Z,983.82
2018-08-24T16:39:00.724Z,983.80
2018-08-24T16:40:00.996Z,983.78
2018-08-24T16:41:01.240Z,983.83
2018-08-24T16:42:01.321Z,983.84
2018-08-24T16:43:01.448Z,983.81
2018-08-24T16:44:01.700Z,983.81
2018-08-24T16:45:01.784Z,983.85
2018-08-24T16:46:02.138Z,983.83
2018-08-24T16:47:02.332Z,983.84
2018-08-24T16:48:02.570Z,983.80
2018-08-24T16:49:02.593Z,983.83
2018-08-24T16:50:02.874Z,983.77
2018-08-24T16:51:02.958Z,983.81
2018-08-24T16:52:03.189Z,983.81
2018-08-24T16:53:03.245Z,983.79
2018-08-24T16:54:03.537Z,983.79
2018-08-24T16:55:04.097Z,983.77
2018-08-24T16:56:03.872Z,983.75
2018-08-24T16:57:04.093Z,983.74
2018-08-24T16:58:04.343Z,983.75
2018-08-24T16:59:04.447Z,983.80
2018-08-24T17:00:04.669Z,983.79
2018-08-24T17:01:04.662Z,983.78
2018-08-24T17:02:04.824Z,983.83
2018-08-24T17:03:05.218Z,983.87
2018-08-24T17:04:05.215Z,983.84
2018-08-24T17:05:05.488Z,983.82
2018-08-24T17:06:05.699Z,983.83
2018-08-24T17:07:05.816Z,983.89
2018-08-24T17:08:06.016Z,983.86
2018-08-24T17:09:06.180Z,983.89
2018-08-24T17:10:06.287Z,983.84
2018-08-24T17:11:06.506Z,983.91
2018-08-24T17:12:06.679Z,983.89
2018-08-24T17:13:06.794Z,983.90
2018-08-24T17:14:07.000Z,983.97
2018-08-24T17:15:07.253Z,983.91
2018-08-24T17:16:07.427Z,983.92
2018-08-24T17:17:07.537Z,983.95
2018-08-24T17:18:07.834Z,983.93
2018-08-24T17:19:07.873Z,983.91
2018-08-24T17:20:08.034Z,983.92
2018-08-24T17:21:08.269Z,983.90
2018-08-24T17:22:08.364Z,983.94
2018-08-24T17:23:08.582Z,983.92
2018-08-24T17:24:08.604Z,983.96
2018-08-24T17:25:08.973Z,983.95
2018-08-24T17:26:09.175Z,983.95
2018-08-24T17:27:09.325Z,983.90
2018-08-24T17:28:09.454Z,983.96
2018-08-24T17:29:09.690Z,983.95
2018-08-24T17:30:09.987Z,983.97
2018-08-24T17:31:09.937Z,983.98
2018-08-24T17:32:10.282Z,983.98
2018-08-24T17:33:10.198Z,983.97
2018-08-24T17:34:10.473Z,983.94
2018-08-24T17:35:10.714Z,984.01
2018-08-24T17:36:10.812Z,983.92
2018-08-24T17:37:10.977Z,983.95
2018-08-24T17:38:11.197Z,984.01
2018-08-24T17:39:11.198Z,983.99
2018-08-24T17:40:11.605Z,983.98
2018-08-24T17:41:11.789Z,983.94
2018-08-24T17:42:11.877Z,983.96
2018-08-24T17:43:12.926Z,983.96
2018-08-24T17:44:12.526Z,983.94
2018-08-24T17:45:12.318Z,983.95
2018-08-24T17:46:12.990Z,983.92
2018-08-24T17:47:12.688Z,983.95
2018-08-24T17:48:12.946Z,983.91
2018-08-24T17:49:13.094Z,983.95
2018-08-24T17:50:13.182Z,983.94
2018-08-24T17:51:13.418Z,983.92
2018-08-24T17:52:13.569Z,983.97
2018-08-24T17:53:13.859Z,983.95
2018-08-24T17:54:13.983Z,983.96
2018-08-24T17:55:14.238Z,983.97
2018-08-24T17:56:14.282Z,983.97
2018-08-24T17:57:14.510Z,983.99
2018-08-24T17:58:14.718Z,983.98
2018-08-24T17:59:14.818Z,984.01
2018-08-24T18:00:15.176Z,984.01
2018-08-24T18:01:15.188Z,984.02
2018-08-24T18:02:15.447Z,984.05
2018-08-24T18:03:15.592Z,984.09
2018-08-24T18:04:16.094Z,984.07
2018-08-24T18:05:15.939Z,984.03
2018-08-24T18:06:16.077Z,984.04
2018-08-24T18:07:16.418Z,984.04
2018-08-24T18:08:16.618Z,984.08
2018-08-24T18:09:16.609Z,984.04
2018-08-24T18:10:16.783Z,984.08
2018-08-24T18:11:17.146Z,984.06
2018-08-24T18:12:17.243Z,984.09
2018-08-24T18:13:17.429Z,984.10
2018-08-24T18:14:17.586Z,984.08
2018-08-24T18:15:18.160Z,984.12
2018-08-24T18:16:17.892Z,984.13
2018-08-24T18:17:18.167Z,984.09
2018-08-24T18:18:18.232Z,984.09
2018-08-24T18:19:18.676Z,984.08
2018-08-24T18:20:18.656Z,984.11
2018-08-24T18:21:19.013Z,984.15
2018-08-24T18:22:19.583Z,984.08
2018-08-24T18:23:19.423Z,984.13
2018-08-24T18:24:19.463Z,984.11
2018-08-24T18:25:20.432Z,984.16
2018-08-24T18:26:19.875Z,984.18
2018-08-24T18:27:20.397Z,984.22
2018-08-24T18:28:20.191Z,984.19
2018-08-24T18:29:20.277Z,984.19
2018-08-24T18:30:20.483Z,984.22
2018-08-24T18:31:20.655Z,984.25
2018-08-24T18:32:21.297Z,984.21
2018-08-24T18:33:21.632Z,984.25
2018-08-24T18:34:21.477Z,984.25
2018-08-24T18:35:21.749Z,984.19
2018-08-24T18:36:21.590Z,984.22
2018-08-24T18:37:22.032Z,984.20
2018-08-24T18:38:21.942Z,984.23
2018-08-24T18:39:22.070Z,984.23
2018-08-24T18:40:22.384Z,984.17
2018-08-24T18:41:22.480Z,984.20
2018-08-24T18:42:22.892Z,984.24
2018-08-24T18:43:23.088Z,984.21
2018-08-24T18:44:23.118Z,984.23
2018-08-24T18:45:23.492Z,984.26
2018-08-24T18:46:23.578Z,984.26
2018-08-24T18:47:23.725Z,984.27
2018-08-24T18:48:24.071Z,984.30
2018-08-24T18:49:24.107Z,984.24
2018-08-24T18:50:24.210Z,984.26
2018-08-24T18:51:24.346Z,984.25
2018-08-24T18:52:24.459Z,984.26
2018-08-24T18:53:24.720Z,984.22
2018-08-24T18:54:24.855Z,984.22
2018-08-24T18:55:24.825Z,984.26
2018-08-24T18:56:25.497Z,984.31
2018-08-24T18:57:25.275Z,984.29
2018-08-24T18:58:25.559Z,984.33
2018-08-24T18:59:25.543Z,984.33
2018-08-24T19:00:25.809Z,984.37
2018-08-24T19:01:26.242Z,984.33
2018-08-24T19:02:26.793Z,984.39
2018-08-24T19:03:26.769Z,984.43
2018-08-24T19:04:27.166Z,984.42
2018-08-24T19:05:27.153Z,984.43
2018-08-24T19:06:26.970Z,984.42
2018-08-24T19:07:27.293Z,984.45
2018-08-24T19:08:27.595Z,984.46
2018-08-24T19:09:27.581Z,984.41
2018-08-24T19:10:27.651Z,984.41
2018-08-24T19:11:27.779Z,984.43
2018-08-24T19:13:28.305Z,984.46
2018-08-24T19:14:28.548Z,984.46
2018-08-24T19:15:28.487Z,984.42
2018-08-24T19:16:28.583Z,984.41
2018-08-24T19:17:28.949Z,984.42
2018-08-24T19:18:28.974Z,984.43
2018-08-24T19:19:29.219Z,984.45
2018-08-24T19:20:29.462Z,984.43
2018-08-24T19:21:29.746Z,984.43